Cannon Air Force Base Clovis US
ICAO: KCVS
IATA: CVS
Category: Large
Scheduled Services: No

Elevation: 4295 ft
TransAlt. 18000 ft.

Airport Communications:
APP:125.5
ATIS:119.1
CLNC DEL:120.2
DEP:125.5
GND:121.9
PMSV METRO:34.46
COMD POST:38.13
PTD:139.6
TWR:120.4

KCVS Zoom In..

If you have problems with the map follow the link
https://www.worldairports.se/pages/airport.php?
ICAO=KCVS

Runways:

(A) RW 04 length 10003 ft width 150 ft
ILS 108.50 / hdg 35

(B) RW 13 length 8196 ft width 150 ft
ILS 110.35 / hdg 125

(C) RW 22 length 10003 ft width 150 ft
ILS 109.70 / hdg 215

(D) RW 31 length 8196 ft width 150 ft
ILS 108.30 / hdg 305

Location; KCVS
Day. 22 / Time. 11.58 Zulu
* Altimeter: 30.17
* Temperature: 08° c. 46.4°f.
* Wind from: 270° Speed 05 kn.
Dewpoint: 05° c.
Visibility: 10 Statute Miles.
Clouds: Clear (automated report).

KCVS 221158Z 27005KT 10SM CLR 08/05 A3017 RMK AO2A SLP190 T00780049 10085 20064 57005 $


Wind From 270°
Speed 05 kn.

 
 
jpsmedia.com for Web Design worldairports.se 2018   terms of use